sensor_id;sensor_type;location;lat;lon;timestamp;P1;durP1;ratioP1;P2;durP2;ratioP2
35632;SDS011;21754;48.216;-1.628;2022-11-20T00:01:48;30.30;;;10.45;;
35632;SDS011;21754;48.216;-1.628;2022-11-20T00:04:14;14.30;;;8.60;;
35632;SDS011;21754;48.216;-1.628;2022-11-20T00:06:40;21.88;;;10.00;;
35632;SDS011;21754;48.216;-1.628;2022-11-20T00:09:05;21.38;;;11.80;;
35632;SDS011;21754;48.216;-1.628;2022-11-20T00:11:31;25.98;;;12.82;;
35632;SDS011;21754;48.216;-1.628;2022-11-20T00:13:59;19.08;;;11.25;;
35632;SDS011;21754;48.216;-1.628;2022-11-20T00:16:27;16.95;;;10.18;;
35632;SDS011;21754;48.216;-1.628;2022-11-20T00:18:54;22.17;;;10.50;;
35632;SDS011;21754;48.216;-1.628;2022-11-20T00:23:47;22.85;;;10.48;;
35632;SDS011;21754;48.216;-1.628;2022-11-20T00:26:14;25.83;;;12.15;;
35632;SDS011;21754;48.216;-1.628;2022-11-20T00:28:42;21.02;;;8.63;;
35632;SDS011;21754;48.216;-1.628;2022-11-20T00:31:14;11.93;;;7.93;;
35632;SDS011;21754;48.216;-1.628;2022-11-20T00:33:41;15.27;;;8.52;;
35632;SDS011;21754;48.216;-1.628;2022-11-20T00:36:08;18.85;;;10.02;;
35632;SDS011;21754;48.216;-1.628;2022-11-20T00:38:36;19.45;;;11.55;;
35632;SDS011;21754;48.216;-1.628;2022-11-20T00:41:07;13.93;;;7.80;;
35632;SDS011;21754;48.216;-1.628;2022-11-20T00:43:34;14.82;;;9.93;;
35632;SDS011;21754;48.216;-1.628;2022-11-20T00:46:01;16.27;;;9.27;;
35632;SDS011;21754;48.216;-1.628;2022-11-20T00:48:34;13.70;;;8.07;;
35632;SDS011;21754;48.216;-1.628;2022-11-20T00:51:00;8.93;;;5.63;;
35632;SDS011;21754;48.216;-1.628;2022-11-20T00:53:26;6.35;;;4.57;;
35632;SDS011;21754;48.216;-1.628;2022-11-20T00:55:55;7.32;;;4.93;;
35632;SDS011;21754;48.216;-1.628;2022-11-20T00:58:22;8.50;;;4.45;;
35632;SDS011;21754;48.216;-1.628;2022-11-20T01:00:49;6.25;;;4.88;;
35632;SDS011;21754;48.216;-1.628;2022-11-20T01:03:17;5.05;;;4.32;;
35632;SDS011;21754;48.216;-1.628;2022-11-20T01:05:43;12.60;;;4.85;;
35632;SDS011;21754;48.216;-1.628;2022-11-20T01:08:09;11.48;;;5.05;;
35632;SDS011;21754;48.216;-1.628;2022-11-20T01:10:34;5.93;;;4.32;;
35632;SDS011;21754;48.216;-1.628;2022-11-20T01:13:00;9.30;;;4.90;;
35632;SDS011;21754;48.216;-1.628;2022-11-20T01:15:44;9.27;;;4.82;;
35632;SDS011;21754;48.216;-1.628;2022-11-20T01:18:10;8.55;;;4.15;;
35632;SDS011;21754;48.216;-1.628;2022-11-20T01:20:36;5.43;;;4.35;;
35632;SDS011;21754;48.216;-1.628;2022-11-20T01:23:02;11.32;;;4.13;;
35632;SDS011;21754;48.216;-1.628;2022-11-20T01:25:28;10.15;;;3.95;;
35632;SDS011;21754;48.216;-1.628;2022-11-20T01:27:54;6.70;;;3.70;;
35632;SDS011;21754;48.216;-1.628;2022-11-20T01:30:20;4.63;;;3.40;;
35632;SDS011;21754;48.216;-1.628;2022-11-20T01:32:46;4.80;;;4.30;;
35632;SDS011;21754;48.216;-1.628;2022-11-20T01:35:11;8.20;;;3.92;;
35632;SDS011;21754;48.216;-1.628;2022-11-20T01:37:37;4.63;;;3.65;;
35632;SDS011;21754;48.216;-1.628;2022-11-20T01:40:02;4.40;;;3.65;;
35632;SDS011;21754;48.216;-1.628;2022-11-20T01:42:28;8.45;;;4.20;;
35632;SDS011;21754;48.216;-1.628;2022-11-20T01:48:15;7.70;;;3.65;;
35632;SDS011;21754;48.216;-1.628;2022-11-20T01:50:42;8.77;;;3.63;;
35632;SDS011;21754;48.216;-1.628;2022-11-20T01:53:08;6.70;;;3.60;;
35632;SDS011;21754;48.216;-1.628;2022-11-20T01:55:41;5.30;;;3.72;;
35632;SDS011;21754;48.216;-1.628;2022-11-20T01:58:14;5.65;;;3.47;;
35632;SDS011;21754;48.216;-1.628;2022-11-20T02:00:41;3.88;;;2.70;;
35632;SDS011;21754;48.216;-1.628;2022-11-20T02:03:09;6.28;;;2.97;;
35632;SDS011;21754;48.216;-1.628;2022-11-20T02:05:39;6.63;;;3.28;;
35632;SDS011;21754;48.216;-1.628;2022-11-20T02:08:36;9.20;;;3.13;;
35632;SDS011;21754;48.216;-1.628;2022-11-20T02:11:03;5.40;;;3.60;;
35632;SDS011;21754;48.216;-1.628;2022-11-20T02:13:28;7.82;;;2.65;;
35632;SDS011;21754;48.216;-1.628;2022-11-20T02:19:13;4.65;;;2.95;;
35632;SDS011;21754;48.216;-1.628;2022-11-20T02:24:24;3.45;;;2.63;;
35632;SDS011;21754;48.216;-1.628;2022-11-20T02:26:55;7.57;;;4.28;;
35632;SDS011;21754;48.216;-1.628;2022-11-20T02:29:27;5.13;;;2.58;;
35632;SDS011;21754;48.216;-1.628;2022-11-20T02:32:00;11.07;;;3.63;;
35632;SDS011;21754;48.216;-1.628;2022-11-20T02:34:27;10.23;;;3.30;;
35632;SDS011;21754;48.216;-1.628;2022-11-20T02:36:53;13.77;;;3.00;;
35632;SDS011;21754;48.216;-1.628;2022-11-20T02:39:20;7.72;;;2.85;;
35632;SDS011;21754;48.216;-1.628;2022-11-20T02:41:48;2.85;;;2.65;;
35632;SDS011;21754;48.216;-1.628;2022-11-20T02:44:13;4.55;;;2.30;;
35632;SDS011;21754;48.216;-1.628;2022-11-20T02:46:39;4.50;;;2.08;;
35632;SDS011;21754;48.216;-1.628;2022-11-20T02:49:05;2.67;;;2.35;;
35632;SDS011;21754;48.216;-1.628;2022-11-20T02:51:30;6.95;;;2.70;;
35632;SDS011;21754;48.216;-1.628;2022-11-20T02:53:57;4.35;;;1.83;;
35632;SDS011;21754;48.216;-1.628;2022-11-20T02:56:23;8.90;;;2.97;;
35632;SDS011;21754;48.216;-1.628;2022-11-20T02:58:49;6.38;;;2.10;;
35632;SDS011;21754;48.216;-1.628;2022-11-20T03:01:15;2.90;;;2.13;;
35632;SDS011;21754;48.216;-1.628;2022-11-20T03:03:40;4.30;;;2.33;;
35632;SDS011;21754;48.216;-1.628;2022-11-20T03:06:06;12.43;;;2.67;;
35632;SDS011;21754;48.216;-1.628;2022-11-20T03:08:32;4.22;;;3.13;;
35632;SDS011;21754;48.216;-1.628;2022-11-20T03:11:02;2.63;;;2.03;;
35632;SDS011;21754;48.216;-1.628;2022-11-20T03:13:31;6.93;;;2.17;;
35632;SDS011;21754;48.216;-1.628;2022-11-20T03:15:58;2.13;;;1.67;;
35632;SDS011;21754;48.216;-1.628;2022-11-20T03:18:29;8.02;;;2.83;;
35632;SDS011;21754;48.216;-1.628;2022-11-20T03:20:58;6.40;;;2.40;;
35632;SDS011;21754;48.216;-1.628;2022-11-20T03:23:24;5.82;;;2.13;;
35632;SDS011;21754;48.216;-1.628;2022-11-20T03:25:50;5.45;;;1.90;;
35632;SDS011;21754;48.216;-1.628;2022-11-20T03:28:15;9.32;;;2.75;;
35632;SDS011;21754;48.216;-1.628;2022-11-20T03:30:41;2.42;;;1.85;;
35632;SDS011;21754;48.216;-1.628;2022-11-20T03:33:07;7.95;;;2.58;;
35632;SDS011;21754;48.216;-1.628;2022-11-20T03:35:32;6.47;;;3.25;;
35632;SDS011;21754;48.216;-1.628;2022-11-20T03:37:58;11.88;;;2.65;;
35632;SDS011;21754;48.216;-1.628;2022-11-20T03:40:23;8.98;;;2.28;;
35632;SDS011;21754;48.216;-1.628;2022-11-20T03:42:49;11.50;;;4.15;;
35632;SDS011;21754;48.216;-1.628;2022-11-20T03:45:18;2.63;;;1.80;;
35632;SDS011;21754;48.216;-1.628;2022-11-20T03:47:44;2.70;;;2.10;;
35632;SDS011;21754;48.216;-1.628;2022-11-20T03:50:11;5.88;;;2.47;;
35632;SDS011;21754;48.216;-1.628;2022-11-20T03:52:38;7.22;;;2.83;;
35632;SDS011;21754;48.216;-1.628;2022-11-20T03:55:05;5.15;;;1.98;;
35632;SDS011;21754;48.216;-1.628;2022-11-20T03:57:31;2.75;;;2.55;;
35632;SDS011;21754;48.216;-1.628;2022-11-20T03:59:57;3.75;;;2.08;;
35632;SDS011;21754;48.216;-1.628;2022-11-20T04:02:22;8.13;;;2.60;;
35632;SDS011;21754;48.216;-1.628;2022-11-20T04:04:48;7.15;;;2.13;;
35632;SDS011;21754;48.216;-1.628;2022-11-20T04:07:13;9.05;;;3.20;;
35632;SDS011;21754;48.216;-1.628;2022-11-20T04:09:39;4.03;;;2.30;;
35632;SDS011;21754;48.216;-1.628;2022-11-20T04:12:05;7.45;;;3.25;;
35632;SDS011;21754;48.216;-1.628;2022-11-20T04:14:30;4.05;;;2.72;;
35632;SDS011;21754;48.216;-1.628;2022-11-20T04:16:56;7.22;;;2.63;;
35632;SDS011;21754;48.216;-1.628;2022-11-20T04:19:22;5.40;;;1.83;;
35632;SDS011;21754;48.216;-1.628;2022-11-20T04:21:47;6.35;;;2.10;;
35632;SDS011;21754;48.216;-1.628;2022-11-20T04:24:13;11.05;;;3.25;;
35632;SDS011;21754;48.216;-1.628;2022-11-20T04:26:39;5.53;;;3.13;;
35632;SDS011;21754;48.216;-1.628;2022-11-20T04:29:05;7.30;;;3.03;;
35632;SDS011;21754;48.216;-1.628;2022-11-20T04:31:31;2.80;;;2.60;;
35632;SDS011;21754;48.216;-1.628;2022-11-20T04:33:59;2.60;;;2.00;;
35632;SDS011;21754;48.216;-1.628;2022-11-20T04:36:29;2.58;;;1.65;;
35632;SDS011;21754;48.216;-1.628;2022-11-20T04:39:00;3.92;;;2.20;;
35632;SDS011;21754;48.216;-1.628;2022-11-20T04:41:29;2.85;;;2.63;;
35632;SDS011;21754;48.216;-1.628;2022-11-20T04:43:57;4.35;;;3.20;;
35632;SDS011;21754;48.216;-1.628;2022-11-20T04:46:27;3.35;;;3.05;;
35632;SDS011;21754;48.216;-1.628;2022-11-20T04:48:53;5.13;;;3.72;;
35632;SDS011;21754;48.216;-1.628;2022-11-20T04:51:19;11.90;;;3.47;;
35632;SDS011;21754;48.216;-1.628;2022-11-20T04:53:45;6.63;;;3.60;;
35632;SDS011;21754;48.216;-1.628;2022-11-20T04:56:11;5.03;;;2.20;;
35632;SDS011;21754;48.216;-1.628;2022-11-20T04:58:38;7.10;;;2.92;;
35632;SDS011;21754;48.216;-1.628;2022-11-20T05:01:09;2.83;;;2.42;;
35632;SDS011;21754;48.216;-1.628;2022-11-20T05:03:36;2.53;;;2.33;;
35632;SDS011;21754;48.216;-1.628;2022-11-20T05:06:02;6.00;;;2.97;;
35632;SDS011;21754;48.216;-1.628;2022-11-20T05:08:30;4.40;;;2.80;;
35632;SDS011;21754;48.216;-1.628;2022-11-20T05:11:00;3.92;;;3.40;;
35632;SDS011;21754;48.216;-1.628;2022-11-20T05:13:30;4.93;;;3.20;;
35632;SDS011;21754;48.216;-1.628;2022-11-20T05:16:00;3.55;;;3.25;;
35632;SDS011;21754;48.216;-1.628;2022-11-20T05:18:30;5.90;;;3.60;;
35632;SDS011;21754;48.216;-1.628;2022-11-20T05:20:56;3.35;;;3.05;;
35632;SDS011;21754;48.216;-1.628;2022-11-20T05:23:23;3.90;;;3.47;;
35632;SDS011;21754;48.216;-1.628;2022-11-20T05:25:51;3.67;;;2.45;;
35632;SDS011;21754;48.216;-1.628;2022-11-20T05:28:18;4.55;;;3.20;;
35632;SDS011;21754;48.216;-1.628;2022-11-20T05:30:44;3.00;;;2.70;;
35632;SDS011;21754;48.216;-1.628;2022-11-20T05:33:10;5.00;;;4.03;;
35632;SDS011;21754;48.216;-1.628;2022-11-20T05:35:35;12.75;;;5.55;;
35632;SDS011;21754;48.216;-1.628;2022-11-20T05:38:01;9.70;;;5.05;;
35632;SDS011;21754;48.216;-1.628;2022-11-20T05:40:26;4.28;;;3.88;;
35632;SDS011;21754;48.216;-1.628;2022-11-20T05:42:52;12.27;;;4.53;;
35632;SDS011;21754;48.216;-1.628;2022-11-20T05:45:18;8.10;;;5.00;;
35632;SDS011;21754;48.216;-1.628;2022-11-20T05:47:43;7.97;;;4.63;;
35632;SDS011;21754;48.216;-1.628;2022-11-20T05:50:09;12.25;;;4.63;;
35632;SDS011;21754;48.216;-1.628;2022-11-20T05:52:34;13.70;;;4.03;;
35632;SDS011;21754;48.216;-1.628;2022-11-20T05:55:00;6.38;;;4.00;;
35632;SDS011;21754;48.216;-1.628;2022-11-20T05:57:26;10.77;;;3.28;;
35632;SDS011;21754;48.216;-1.628;2022-11-20T05:59:52;4.72;;;3.30;;
35632;SDS011;21754;48.216;-1.628;2022-11-20T06:02:17;4.10;;;3.25;;
35632;SDS011;21754;48.216;-1.628;2022-11-20T06:04:43;2.78;;;2.58;;
35632;SDS011;21754;48.216;-1.628;2022-11-20T06:07:09;18.08;;;2.28;;
35632;SDS011;21754;48.216;-1.628;2022-11-20T06:09:34;3.35;;;2.35;;
35632;SDS011;21754;48.216;-1.628;2022-11-20T06:12:00;11.30;;;2.25;;
35632;SDS011;21754;48.216;-1.628;2022-11-20T06:14:25;2.00;;;1.80;;
35632;SDS011;21754;48.216;-1.628;2022-11-20T06:16:51;2.20;;;2.10;;
35632;SDS011;21754;48.216;-1.628;2022-11-20T06:19:17;4.25;;;1.45;;
35632;SDS011;21754;48.216;-1.628;2022-11-20T06:21:42;1.08;;;1.05;;
35632;SDS011;21754;48.216;-1.628;2022-11-20T06:24:09;1.42;;;1.25;;
35632;SDS011;21754;48.216;-1.628;2022-11-20T06:26:35;2.35;;;1.85;;
35632;SDS011;21754;48.216;-1.628;2022-11-20T06:29:01;2.45;;;2.05;;
35632;SDS011;21754;48.216;-1.628;2022-11-20T06:31:27;2.30;;;2.20;;
35632;SDS011;21754;48.216;-1.628;2022-11-20T06:33:53;2.38;;;1.88;;
35632;SDS011;21754;48.216;-1.628;2022-11-20T06:36:19;1.67;;;1.58;;
35632;SDS011;21754;48.216;-1.628;2022-11-20T06:38:46;1.60;;;1.35;;
35632;SDS011;21754;48.216;-1.628;2022-11-20T06:41:13;1.33;;;1.20;;
35632;SDS011;21754;48.216;-1.628;2022-11-20T06:43:41;1.60;;;1.50;;
35632;SDS011;21754;48.216;-1.628;2022-11-20T06:46:08;3.60;;;1.33;;
35632;SDS011;21754;48.216;-1.628;2022-11-20T06:48:35;0.93;;;0.93;;
35632;SDS011;21754;48.216;-1.628;2022-11-20T06:51:02;3.88;;;1.17;;
35632;SDS011;21754;48.216;-1.628;2022-11-20T06:53:29;1.58;;;1.48;;
35632;SDS011;21754;48.216;-1.628;2022-11-20T06:55:55;1.27;;;1.17;;
35632;SDS011;21754;48.216;-1.628;2022-11-20T07:00:48;1.30;;;1.20;;
35632;SDS011;21754;48.216;-1.628;2022-11-20T07:03:14;8.88;;;2.00;;
35632;SDS011;21754;48.216;-1.628;2022-11-20T07:05:39;2.55;;;1.23;;
35632;SDS011;21754;48.216;-1.628;2022-11-20T07:08:05;1.70;;;1.60;;
35632;SDS011;21754;48.216;-1.628;2022-11-20T07:10:32;1.85;;;1.65;;
35632;SDS011;21754;48.216;-1.628;2022-11-20T07:12:57;4.43;;;1.83;;
35632;SDS011;21754;48.216;-1.628;2022-11-20T07:15:24;3.08;;;2.15;;
35632;SDS011;21754;48.216;-1.628;2022-11-20T07:17:50;2.42;;;2.25;;
35632;SDS011;21754;48.216;-1.628;2022-11-20T07:20:16;3.50;;;1.77;;
35632;SDS011;21754;48.216;-1.628;2022-11-20T07:22:42;5.60;;;3.35;;
35632;SDS011;21754;48.216;-1.628;2022-11-20T07:25:08;3.92;;;2.97;;
35632;SDS011;21754;48.216;-1.628;2022-11-20T07:27:34;2.13;;;1.98;;
35632;SDS011;21754;48.216;-1.628;2022-11-20T07:30:00;2.40;;;2.20;;
35632;SDS011;21754;48.216;-1.628;2022-11-20T07:32:26;6.00;;;3.20;;
35632;SDS011;21754;48.216;-1.628;2022-11-20T07:34:52;7.50;;;2.70;;
35632;SDS011;21754;48.216;-1.628;2022-11-20T07:37:18;4.03;;;2.40;;
35632;SDS011;21754;48.216;-1.628;2022-11-20T07:39:43;2.60;;;2.15;;
35632;SDS011;21754;48.216;-1.628;2022-11-20T07:42:09;1.95;;;1.85;;
35632;SDS011;21754;48.216;-1.628;2022-11-20T07:44:37;2.00;;;1.90;;
35632;SDS011;21754;48.216;-1.628;2022-11-20T07:47:03;1.58;;;1.48;;
35632;SDS011;21754;48.216;-1.628;2022-11-20T07:49:29;1.42;;;1.30;;
35632;SDS011;21754;48.216;-1.628;2022-11-20T07:51:54;1.88;;;1.75;;
35632;SDS011;21754;48.216;-1.628;2022-11-20T07:54:20;1.67;;;1.58;;
35632;SDS011;21754;48.216;-1.628;2022-11-20T07:56:46;1.55;;;1.25;;
35632;SDS011;21754;48.216;-1.628;2022-11-20T07:59:13;1.65;;;1.55;;
35632;SDS011;21754;48.216;-1.628;2022-11-20T08:01:39;3.33;;;1.90;;
35632;SDS011;21754;48.216;-1.628;2022-11-20T08:04:05;3.30;;;2.08;;
35632;SDS011;21754;48.216;-1.628;2022-11-20T08:06:31;6.43;;;4.93;;
35632;SDS011;21754;48.216;-1.628;2022-11-20T08:08:57;11.45;;;8.15;;
35632;SDS011;21754;48.216;-1.628;2022-11-20T08:11:22;13.07;;;10.65;;
35632;SDS011;21754;48.216;-1.628;2022-11-20T08:14:07;11.35;;;8.10;;
35632;SDS011;21754;48.216;-1.628;2022-11-20T08:16:39;5.90;;;5.40;;
35632;SDS011;21754;48.216;-1.628;2022-11-20T08:19:05;7.15;;;5.68;;
35632;SDS011;21754;48.216;-1.628;2022-11-20T08:21:31;6.82;;;5.07;;
35632;SDS011;21754;48.216;-1.628;2022-11-20T08:23:57;4.35;;;3.95;;
35632;SDS011;21754;48.216;-1.628;2022-11-20T08:26:23;3.30;;;2.72;;
35632;SDS011;21754;48.216;-1.628;2022-11-20T08:28:49;5.68;;;2.75;;
35632;SDS011;21754;48.216;-1.628;2022-11-20T08:31:19;3.50;;;2.20;;
35632;SDS011;21754;48.216;-1.628;2022-11-20T08:33:45;10.90;;;2.22;;
35632;SDS011;21754;48.216;-1.628;2022-11-20T08:36:11;10.05;;;2.42;;
35632;SDS011;21754;48.216;-1.628;2022-11-20T08:38:37;2.33;;;1.77;;
35632;SDS011;21754;48.216;-1.628;2022-11-20T08:41:03;8.93;;;2.53;;
35632;SDS011;21754;48.216;-1.628;2022-11-20T08:43:48;5.53;;;2.35;;
35632;SDS011;21754;48.216;-1.628;2022-11-20T08:46:19;6.25;;;2.45;;
35632;SDS011;21754;48.216;-1.628;2022-11-20T08:48:45;9.27;;;2.53;;
35632;SDS011;21754;48.216;-1.628;2022-11-20T08:51:11;7.32;;;1.70;;
35632;SDS011;21754;48.216;-1.628;2022-11-20T08:53:40;10.18;;;1.80;;
35632;SDS011;21754;48.216;-1.628;2022-11-20T08:56:06;6.43;;;1.60;;
35632;SDS011;21754;48.216;-1.628;2022-11-20T08:58:32;6.38;;;2.53;;
35632;SDS011;21754;48.216;-1.628;2022-11-20T09:00:58;10.27;;;2.22;;
35632;SDS011;21754;48.216;-1.628;2022-11-20T09:03:23;23.90;;;3.25;;
35632;SDS011;21754;48.216;-1.628;2022-11-20T09:08:21;10.00;;;2.17;;
35632;SDS011;21754;48.216;-1.628;2022-11-20T09:10:50;8.13;;;2.35;;
35632;SDS011;21754;48.216;-1.628;2022-11-20T09:13:17;12.60;;;1.77;;
35632;SDS011;21754;48.216;-1.628;2022-11-20T09:15:43;27.52;;;4.40;;
35632;SDS011;21754;48.216;-1.628;2022-11-20T09:18:09;21.73;;;4.75;;
35632;SDS011;21754;48.216;-1.628;2022-11-20T09:20:34;15.32;;;2.95;;
35632;SDS011;21754;48.216;-1.628;2022-11-20T09:23:00;48.03;;;4.38;;
35632;SDS011;21754;48.216;-1.628;2022-11-20T09:25:26;26.70;;;4.07;;
35632;SDS011;21754;48.216;-1.628;2022-11-20T09:27:58;30.20;;;4.53;;
35632;SDS011;21754;48.216;-1.628;2022-11-20T09:30:23;28.25;;;4.18;;
35632;SDS011;21754;48.216;-1.628;2022-11-20T09:32:49;25.85;;;5.85;;
35632;SDS011;21754;48.216;-1.628;2022-11-20T09:35:15;33.40;;;5.53;;
35632;SDS011;21754;48.216;-1.628;2022-11-20T09:37:42;27.20;;;4.90;;
35632;SDS011;21754;48.216;-1.628;2022-11-20T09:40:17;27.42;;;4.28;;
35632;SDS011;21754;48.216;-1.628;2022-11-20T09:45:50;25.40;;;4.57;;
35632;SDS011;21754;48.216;-1.628;2022-11-20T09:51:53;24.80;;;4.05;;
35632;SDS011;21754;48.216;-1.628;2022-11-20T09:54:27;23.40;;;3.08;;
35632;SDS011;21754;48.216;-1.628;2022-11-20T09:57:23;24.73;;;4.82;;
35632;SDS011;21754;48.216;-1.628;2022-11-20T10:00:00;26.65;;;4.38;;
35632;SDS011;21754;48.216;-1.628;2022-11-20T10:02:42;28.27;;;4.20;;
35632;SDS011;21754;48.216;-1.628;2022-11-20T10:07:55;31.67;;;3.53;;
35632;SDS011;21754;48.216;-1.628;2022-11-20T10:10:44;26.67;;;4.57;;
35632;SDS011;21754;48.216;-1.628;2022-11-20T10:13:20;24.95;;;5.13;;
35632;SDS011;21754;48.216;-1.628;2022-11-20T10:18:40;36.13;;;3.83;;
35632;SDS011;21754;48.216;-1.628;2022-11-20T10:30:16;46.60;;;5.45;;
35632;SDS011;21754;48.216;-1.628;2022-11-20T10:32:55;23.92;;;5.38;;
35632;SDS011;21754;48.216;-1.628;2022-11-20T10:35:33;30.05;;;3.95;;
35632;SDS011;21754;48.216;-1.628;2022-11-20T10:38:21;27.27;;;4.18;;
35632;SDS011;21754;48.216;-1.628;2022-11-20T10:40:52;24.00;;;5.22;;
35632;SDS011;21754;48.216;-1.628;2022-11-20T10:43:45;26.88;;;3.13;;
35632;SDS011;21754;48.216;-1.628;2022-11-20T10:46:14;25.50;;;3.80;;
35632;SDS011;21754;48.216;-1.628;2022-11-20T10:48:43;25.52;;;5.38;;
35632;SDS011;21754;48.216;-1.628;2022-11-20T10:54:22;25.52;;;3.88;;
35632;SDS011;21754;48.216;-1.628;2022-11-20T10:57:00;41.97;;;4.63;;
35632;SDS011;21754;48.216;-1.628;2022-11-20T11:02:21;35.30;;;4.80;;
35632;SDS011;21754;48.216;-1.628;2022-11-20T11:04:50;42.05;;;4.97;;
35632;SDS011;21754;48.216;-1.628;2022-11-20T11:09:47;34.58;;;2.95;;
35632;SDS011;21754;48.216;-1.628;2022-11-20T11:12:15;18.10;;;3.90;;
35632;SDS011;21754;48.216;-1.628;2022-11-20T11:15:02;29.38;;;4.00;;
35632;SDS011;21754;48.216;-1.628;2022-11-20T11:17:28;27.73;;;4.50;;
35632;SDS011;21754;48.216;-1.628;2022-11-20T11:20:03;27.42;;;4.15;;
35632;SDS011;21754;48.216;-1.628;2022-11-20T11:22:33;18.90;;;4.45;;
35632;SDS011;21754;48.216;-1.628;2022-11-20T11:25:09;29.60;;;4.80;;
35632;SDS011;21754;48.216;-1.628;2022-11-20T11:27:45;34.65;;;4.80;;
35632;SDS011;21754;48.216;-1.628;2022-11-20T11:30:14;34.47;;;8.38;;
35632;SDS011;21754;48.216;-1.628;2022-11-20T11:32:41;45.17;;;5.20;;
35632;SDS011;21754;48.216;-1.628;2022-11-20T11:35:18;28.75;;;3.33;;
35632;SDS011;21754;48.216;-1.628;2022-11-20T11:37:47;43.58;;;6.70;;
35632;SDS011;21754;48.216;-1.628;2022-11-20T11:40:13;22.92;;;3.67;;
35632;SDS011;21754;48.216;-1.628;2022-11-20T11:42:44;36.15;;;6.35;;
35632;SDS011;21754;48.216;-1.628;2022-11-20T11:45:15;66.65;;;6.63;;
35632;SDS011;21754;48.216;-1.628;2022-11-20T11:52:39;23.08;;;4.40;;
35632;SDS011;21754;48.216;-1.628;2022-11-20T12:01:08;26.27;;;5.43;;
35632;SDS011;21754;48.216;-1.628;2022-11-20T12:07:13;15.43;;;3.85;;
35632;SDS011;21754;48.216;-1.628;2022-11-20T12:09:46;13.18;;;2.92;;
35632;SDS011;21754;48.216;-1.628;2022-11-20T12:12:18;19.73;;;3.15;;
35632;SDS011;21754;48.216;-1.628;2022-11-20T12:14:47;24.38;;;4.13;;
35632;SDS011;21754;48.216;-1.628;2022-11-20T12:17:16;24.48;;;3.78;;
35632;SDS011;21754;48.216;-1.628;2022-11-20T12:19:42;20.10;;;4.63;;
35632;SDS011;21754;48.216;-1.628;2022-11-20T12:30:22;12.27;;;3.28;;
35632;SDS011;21754;48.216;-1.628;2022-11-20T12:41:11;19.48;;;3.22;;
35632;SDS011;21754;48.216;-1.628;2022-11-20T12:44:24;31.92;;;3.08;;
35632;SDS011;21754;48.216;-1.628;2022-11-20T13:00:56;23.90;;;3.33;;
35632;SDS011;21754;48.216;-1.628;2022-11-20T13:03:43;17.00;;;3.45;;
35632;SDS011;21754;48.216;-1.628;2022-11-20T13:06:17;13.38;;;3.58;;
35632;SDS011;21754;48.216;-1.628;2022-11-20T13:08:53;22.27;;;5.57;;
35632;SDS011;21754;48.216;-1.628;2022-11-20T13:14:09;21.52;;;5.28;;
35632;SDS011;21754;48.216;-1.628;2022-11-20T13:19:17;28.02;;;4.13;;
35632;SDS011;21754;48.216;-1.628;2022-11-20T13:21:47;27.70;;;3.55;;
35632;SDS011;21754;48.216;-1.628;2022-11-20T13:24:22;26.42;;;3.72;;
35632;SDS011;21754;48.216;-1.628;2022-11-20T13:29:31;28.38;;;5.57;;
35632;SDS011;21754;48.216;-1.628;2022-11-20T13:32:04;16.20;;;3.63;;
35632;SDS011;21754;48.216;-1.628;2022-11-20T13:34:32;23.10;;;3.00;;
35632;SDS011;21754;48.216;-1.628;2022-11-20T13:36:59;28.50;;;2.95;;
35632;SDS011;21754;48.216;-1.628;2022-11-20T13:39:37;32.92;;;4.63;;
35632;SDS011;21754;48.216;-1.628;2022-11-20T13:42:25;12.65;;;2.83;;
35632;SDS011;21754;48.216;-1.628;2022-11-20T13:44:55;15.05;;;5.65;;
35632;SDS011;21754;48.216;-1.628;2022-11-20T13:47:27;17.13;;;2.60;;
35632;SDS011;21754;48.216;-1.628;2022-11-20T13:49:53;9.18;;;2.38;;
35632;SDS011;21754;48.216;-1.628;2022-11-20T14:00:55;18.38;;;3.50;;
35632;SDS011;21754;48.216;-1.628;2022-11-20T14:04:06;12.85;;;3.05;;
35632;SDS011;21754;48.216;-1.628;2022-11-20T14:06:43;16.83;;;2.38;;
35632;SDS011;21754;48.216;-1.628;2022-11-20T14:09:12;15.30;;;4.50;;
35632;SDS011;21754;48.216;-1.628;2022-11-20T14:11:45;19.92;;;3.55;;
35632;SDS011;21754;48.216;-1.628;2022-11-20T14:14:18;26.58;;;2.67;;
35632;SDS011;21754;48.216;-1.628;2022-11-20T14:16:46;18.23;;;2.58;;
35632;SDS011;21754;48.216;-1.628;2022-11-20T14:24:20;14.60;;;2.58;;
35632;SDS011;21754;48.216;-1.628;2022-11-20T14:26:47;17.75;;;3.58;;
35632;SDS011;21754;48.216;-1.628;2022-11-20T14:29:15;16.70;;;2.33;;
35632;SDS011;21754;48.216;-1.628;2022-11-20T14:31:44;12.80;;;1.75;;
35632;SDS011;21754;48.216;-1.628;2022-11-20T14:34:15;8.40;;;2.55;;
35632;SDS011;21754;48.216;-1.628;2022-11-20T14:36:44;16.67;;;3.25;;
35632;SDS011;21754;48.216;-1.628;2022-11-20T14:39:11;20.35;;;2.83;;
35632;SDS011;21754;48.216;-1.628;2022-11-20T14:41:50;13.70;;;2.28;;
35632;SDS011;21754;48.216;-1.628;2022-11-20T14:44:16;13.82;;;2.15;;
35632;SDS011;21754;48.216;-1.628;2022-11-20T14:46:42;9.45;;;2.45;;
35632;SDS011;21754;48.216;-1.628;2022-11-20T14:49:08;28.23;;;4.45;;
35632;SDS011;21754;48.216;-1.628;2022-11-20T14:51:37;6.40;;;2.47;;
35632;SDS011;21754;48.216;-1.628;2022-11-20T14:54:10;23.02;;;3.50;;
35632;SDS011;21754;48.216;-1.628;2022-11-20T14:56:36;12.70;;;3.22;;
35632;SDS011;21754;48.216;-1.628;2022-11-20T14:59:02;9.40;;;2.17;;
35632;SDS011;21754;48.216;-1.628;2022-11-20T15:01:29;20.70;;;2.75;;
35632;SDS011;21754;48.216;-1.628;2022-11-20T15:04:00;9.50;;;2.75;;
35632;SDS011;21754;48.216;-1.628;2022-11-20T15:06:34;17.15;;;2.60;;
35632;SDS011;21754;48.216;-1.628;2022-11-20T15:09:02;14.48;;;1.67;;
35632;SDS011;21754;48.216;-1.628;2022-11-20T15:13:56;22.92;;;2.83;;
35632;SDS011;21754;48.216;-1.628;2022-11-20T15:16:23;9.18;;;2.20;;
35632;SDS011;21754;48.216;-1.628;2022-11-20T15:18:49;13.20;;;2.47;;
35632;SDS011;21754;48.216;-1.628;2022-11-20T15:21:17;12.57;;;2.60;;
35632;SDS011;21754;48.216;-1.628;2022-11-20T15:23:45;19.77;;;2.55;;
35632;SDS011;21754;48.216;-1.628;2022-11-20T15:26:12;15.20;;;2.53;;
35632;SDS011;21754;48.216;-1.628;2022-11-20T15:28:50;8.13;;;2.00;;
35632;SDS011;21754;48.216;-1.628;2022-11-20T15:31:26;9.73;;;1.75;;
35632;SDS011;21754;48.216;-1.628;2022-11-20T15:33:51;8.90;;;3.05;;
35632;SDS011;21754;48.216;-1.628;2022-11-20T15:36:17;14.23;;;2.65;;
35632;SDS011;21754;48.216;-1.628;2022-11-20T15:38:43;15.82;;;2.10;;
35632;SDS011;21754;48.216;-1.628;2022-11-20T15:41:08;13.32;;;2.95;;
35632;SDS011;21754;48.216;-1.628;2022-11-20T15:43:35;10.98;;;2.65;;
35632;SDS011;21754;48.216;-1.628;2022-11-20T15:46:02;5.75;;;3.30;;
35632;SDS011;21754;48.216;-1.628;2022-11-20T15:48:38;9.98;;;2.95;;
35632;SDS011;21754;48.216;-1.628;2022-11-20T15:51:10;29.50;;;3.13;;
35632;SDS011;21754;48.216;-1.628;2022-11-20T15:56:12;14.85;;;2.72;;
35632;SDS011;21754;48.216;-1.628;2022-11-20T15:58:39;12.48;;;2.67;;
35632;SDS011;21754;48.216;-1.628;2022-11-20T16:01:05;18.13;;;6.50;;
35632;SDS011;21754;48.216;-1.628;2022-11-20T16:03:35;18.65;;;6.00;;
35632;SDS011;21754;48.216;-1.628;2022-11-20T16:06:00;13.85;;;5.53;;
35632;SDS011;21754;48.216;-1.628;2022-11-20T16:08:26;13.57;;;4.30;;
35632;SDS011;21754;48.216;-1.628;2022-11-20T16:10:51;19.73;;;5.20;;
35632;SDS011;21754;48.216;-1.628;2022-11-20T16:13:17;15.07;;;4.97;;
35632;SDS011;21754;48.216;-1.628;2022-11-20T16:16:22;17.40;;;6.65;;
35632;SDS011;21754;48.216;-1.628;2022-11-20T16:18:50;24.48;;;5.43;;
35632;SDS011;21754;48.216;-1.628;2022-11-20T16:21:16;15.82;;;4.85;;
35632;SDS011;21754;48.216;-1.628;2022-11-20T16:23:42;10.95;;;5.13;;
35632;SDS011;21754;48.216;-1.628;2022-11-20T16:28:38;21.20;;;5.43;;
35632;SDS011;21754;48.216;-1.628;2022-11-20T16:33:35;21.10;;;4.63;;
35632;SDS011;21754;48.216;-1.628;2022-11-20T16:36:10;13.65;;;4.57;;
35632;SDS011;21754;48.216;-1.628;2022-11-20T16:38:38;15.33;;;5.53;;
35632;SDS011;21754;48.216;-1.628;2022-11-20T16:41:03;12.38;;;4.88;;